This is the latest recevied weather packets stored in our database for station/object OM7FX-15. If no packets are shown the sender has not sent any weather packets the latest 10 day(s).
| Time | Temp. | Humidity | Pressure | Rain* | Wind** | Luminosity | Snow |
|---|---|---|---|---|---|---|---|
| 1777653176 | 28.89° C | 31% | 977 hPa | - | - | - | - |
| 1777652276 | 29.44° C | 30% | 977.1 hPa | - | - | - | - |
| 1777651376 | 26.67° C | 33% | 977.1 hPa | - | - | - | - |
| 1777650476 | 28.89° C | 31% | 977.1 hPa | - | - | - | - |
| 1777649576 | 26.67° C | 36% | 977.2 hPa | - | - | - | - |
| 1777648676 | 28.89° C | 31% | 976.9 hPa | - | - | - | - |
| 1777647776 | 26.11° C | 37% | 977.1 hPa | - | - | - | - |
| 1777646876 | 28.89° C | 32% | 977.1 hPa | - | - | - | - |
| 1777645976 | 29.44° C | 30% | 977.1 hPa | - | - | - | - |
| 1777645076 | 28.33° C | 33% | 977.2 hPa | - | - | - | - |
| 1777644175 | 28.89° C | 30% | 977.2 hPa | - | - | - | - |
| 1777643275 | 26.67° C | 34% | 977.3 hPa | - | - | - | - |
| 1777642375 | 28.89° C | 30% | 977.3 hPa | - | - | - | - |
| 1777641475 | 26.67° C | 34% | 977.4 hPa | - | - | - | - |
| 1777640575 | 28.89° C | 30% | 977.5 hPa | - | - | - | - |
| 1777639675 | 27.22° C | 33% | 977.6 hPa | - | - | - | - |
| 1777638775 | 28.89° C | 29% | 977.7 hPa | - | - | - | - |
| 1777637875 | 26.67° C | 32% | 978 hPa | - | - | - | - |
| 1777636975 | 28.33° C | 30% | 978.1 hPa | - | - | - | - |
| 1777636075 | 28.33° C | 29% | 978.3 hPa | - | - | - | - |
| 1777635175 | 26.11° C | 34% | 978.4 hPa | - | - | - | - |
| 1777634275 | 28.33° C | 30% | 978.6 hPa | - | - | - | - |
| 1777633375 | 25.56° C | 34% | 978.8 hPa | - | - | - | - |
| 1777632474 | 28.89° C | 29% | 978.9 hPa | - | - | - | - |
| 1777631575 | 26.11° C | 33% | 979.1 hPa | - | - | - | - |
* Rain since midnight (hover to see other rain measurements)
** Current wind speed in m/s (hover to see current wind gust speed)